sensor_id;sensor_type;location;lat;lon;timestamp;temperature;humidity
73438;DHT22;62744;56.802;23.964;2022-12-29T09:57:02;6.50;89.00
73438;DHT22;62744;56.802;23.964;2022-12-29T09:59:44;6.30;90.70
73438;DHT22;66471;56.532;21.020;2022-12-29T10:05:00;6.10;92.50
73438;DHT22;66471;56.532;21.020;2022-12-29T10:07:40;6.00;93.20
73438;DHT22;66471;56.532;21.020;2022-12-29T10:13:55;5.90;93.90
73438;DHT22;66471;56.532;21.020;2022-12-29T10:16:20;5.90;93.90
73438;DHT22;66471;56.532;21.020;2022-12-29T10:21:39;6.00;94.10
73438;DHT22;66471;56.532;21.020;2022-12-29T10:24:12;5.80;94.10
73438;DHT22;66471;56.532;21.020;2022-12-29T10:26:41;5.90;94.10
73438;DHT22;66471;56.532;21.020;2022-12-29T10:29:19;6.00;94.50
73438;DHT22;66471;56.532;21.020;2022-12-29T10:34:26;5.90;94.30
73438;DHT22;66471;56.532;21.020;2022-12-29T10:37:05;6.00;94.60
73438;DHT22;66471;56.532;21.020;2022-12-29T10:39:49;5.90;94.60
73438;DHT22;66471;56.532;21.020;2022-12-29T10:42:26;5.80;94.50
73438;DHT22;66471;56.532;21.020;2022-12-29T10:44:58;5.90;94.50
73438;DHT22;66471;56.532;21.020;2022-12-29T10:47:29;5.70;94.80
73438;DHT22;66471;56.532;21.020;2022-12-29T10:49:56;5.80;94.60
73438;DHT22;66471;56.532;21.020;2022-12-29T10:54:02;6.00;94.90
73438;DHT22;66471;56.532;21.020;2022-12-29T10:56:42;5.80;94.90
73438;DHT22;66471;56.532;21.020;2022-12-29T10:59:26;5.80;94.90
73438;DHT22;66471;56.532;21.020;2022-12-29T11:07:19;5.80;94.60
73438;DHT22;66471;56.532;21.020;2022-12-29T11:09:52;5.70;95.00
73438;DHT22;66471;56.532;21.020;2022-12-29T11:12:21;5.80;95.30
73438;DHT22;66471;56.532;21.020;2022-12-29T11:17:49;5.80;96.10
73438;DHT22;66471;56.532;21.020;2022-12-29T11:20:38;5.70;96.10
73438;DHT22;66471;56.532;21.020;2022-12-29T11:23:22;5.70;96.70
73438;DHT22;66471;56.532;21.020;2022-12-29T11:26:25;5.50;96.70
73438;DHT22;66471;56.532;21.020;2022-12-29T11:31:50;5.60;97.20
73438;DHT22;66471;56.532;21.020;2022-12-29T11:34:35;5.60;97.20
73438;DHT22;66471;56.532;21.020;2022-12-29T11:37:09;5.60;97.20
73438;DHT22;66471;56.532;21.020;2022-12-29T11:39:49;5.50;97.50
73438;DHT22;66471;56.532;21.020;2022-12-29T11:45:26;5.50;97.90
73438;DHT22;66471;56.532;21.020;2022-12-29T11:47:57;5.60;97.80
73438;DHT22;66471;56.532;21.020;2022-12-29T11:50:30;5.50;98.10
73438;DHT22;66471;56.532;21.020;2022-12-29T11:53:05;5.40;98.00
73438;DHT22;66471;56.532;21.020;2022-12-29T11:55:34;5.50;98.20
73438;DHT22;66471;56.532;21.020;2022-12-29T11:58:03;5.70;98.20
73438;DHT22;66471;56.532;21.020;2022-12-29T12:00:34;5.60;98.40
73438;DHT22;66471;56.532;21.020;2022-12-29T12:03:19;5.40;98.50
73438;DHT22;66471;56.532;21.020;2022-12-29T12:06:18;5.40;98.50
73438;DHT22;66471;56.532;21.020;2022-12-29T12:09:10;5.70;98.50
73438;DHT22;66471;56.532;21.020;2022-12-29T12:11:42;5.60;98.50
73438;DHT22;66471;56.532;21.020;2022-12-29T12:14:19;5.40;98.90
73438;DHT22;66471;56.532;21.020;2022-12-29T12:16:55;5.60;98.60
73438;DHT22;66471;56.532;21.020;2022-12-29T12:19:46;5.60;99.00
73438;DHT22;66471;56.532;21.020;2022-12-29T12:22:34;5.40;98.80
73438;DHT22;66471;56.532;21.020;2022-12-29T12:30:23;5.60;99.10
73438;DHT22;66471;56.532;21.020;2022-12-29T12:35:42;5.70;99.40
73438;DHT22;66471;56.532;21.020;2022-12-29T12:43:41;5.60;99.40
73438;DHT22;66471;56.532;21.020;2022-12-29T12:46:42;5.60;99.60
73438;DHT22;66471;56.532;21.020;2022-12-29T12:51:34;5.60;99.70
73438;DHT22;66471;56.532;21.020;2022-12-29T12:57:08;5.60;99.80
73438;DHT22;66471;56.532;21.020;2022-12-29T12:59:52;5.80;99.70
73438;DHT22;66471;56.532;21.020;2022-12-29T13:14:02;5.50;99.90
73438;DHT22;66471;56.532;21.020;2022-12-29T13:19:20;5.70;99.90
73438;DHT22;66471;56.532;21.020;2022-12-29T13:25:07;5.70;99.90
73438;DHT22;66471;56.532;21.020;2022-12-29T13:27:54;5.50;99.80
73438;DHT22;66471;56.532;21.020;2022-12-29T13:31:14;5.70;99.90
73438;DHT22;66471;56.532;21.020;2022-12-29T13:39:12;5.70;99.90
73438;DHT22;66471;56.532;21.020;2022-12-29T13:41:52;5.80;99.90
73438;DHT22;66471;56.532;21.020;2022-12-29T13:44:33;5.80;99.90
73438;DHT22;66471;56.532;21.020;2022-12-29T13:47:25;5.60;99.90
73438;DHT22;66471;56.532;21.020;2022-12-29T13:49:57;5.70;99.90
73438;DHT22;66471;56.532;21.020;2022-12-29T13:52:37;5.70;99.90
73438;DHT22;66471;56.532;21.020;2022-12-29T13:58:03;5.70;99.90
73438;DHT22;66471;56.532;21.020;2022-12-29T14:00:53;5.80;99.90
73438;DHT22;66471;56.532;21.020;2022-12-29T14:03:55;5.70;99.90
73438;DHT22;66471;56.532;21.020;2022-12-29T14:09:00;5.80;99.90
73438;DHT22;66471;56.532;21.020;2022-12-29T14:11:45;5.70;99.90
73438;DHT22;66471;56.532;21.020;2022-12-29T14:14:31;5.80;99.90
73438;DHT22;66471;56.532;21.020;2022-12-29T14:17:12;5.80;99.90
73438;DHT22;66471;56.532;21.020;2022-12-29T14:19:42;5.60;99.90
73438;DHT22;66471;56.532;21.020;2022-12-29T14:22:11;5.90;99.90
73438;DHT22;66471;56.532;21.020;2022-12-29T14:24:44;5.80;99.90
73438;DHT22;66471;56.532;21.020;2022-12-29T14:34:53;5.70;99.90
73438;DHT22;66471;56.532;21.020;2022-12-29T14:37:28;5.70;99.90
73438;DHT22;66471;56.532;21.020;2022-12-29T14:42:30;5.60;99.90
73438;DHT22;66471;56.532;21.020;2022-12-29T14:45:06;5.80;99.90
73438;DHT22;66471;56.532;21.020;2022-12-29T14:47:37;5.80;99.90
73438;DHT22;66471;56.532;21.020;2022-12-29T14:52:59;5.90;99.90
73438;DHT22;66471;56.532;21.020;2022-12-29T14:55:45;5.80;99.90
73438;DHT22;66471;56.532;21.020;2022-12-29T14:58:29;5.80;99.90
73438;DHT22;66471;56.532;21.020;2022-12-29T15:00:59;5.80;99.90
73438;DHT22;66471;56.532;21.020;2022-12-29T15:03:32;5.80;99.90
73438;DHT22;66471;56.532;21.020;2022-12-29T15:06:08;5.80;99.90
73438;DHT22;66471;56.532;21.020;2022-12-29T15:17:01;5.80;99.90
73438;DHT22;66471;56.532;21.020;2022-12-29T15:19:28;5.80;99.90
73438;DHT22;66471;56.532;21.020;2022-12-29T15:21:56;5.60;99.90
73438;DHT22;66471;56.532;21.020;2022-12-29T15:24:24;5.70;99.90
73438;DHT22;66471;56.532;21.020;2022-12-29T15:26:53;5.70;99.90
73438;DHT22;66471;56.532;21.020;2022-12-29T15:29:37;5.90;99.90
73438;DHT22;66471;56.532;21.020;2022-12-29T15:32:27;5.80;99.90
73438;DHT22;66471;56.532;21.020;2022-12-29T15:34:56;5.80;99.90
73438;DHT22;66471;56.532;21.020;2022-12-29T15:37:28;5.60;99.90
73438;DHT22;66471;56.532;21.020;2022-12-29T15:39:55;5.70;99.90
73438;DHT22;66471;56.532;21.020;2022-12-29T15:45:17;5.90;99.90
73438;DHT22;66471;56.532;21.020;2022-12-29T15:47:45;5.80;99.90
73438;DHT22;66471;56.532;21.020;2022-12-29T15:50:36;5.80;99.90
73438;DHT22;66471;56.532;21.020;2022-12-29T15:53:12;5.90;99.90
73438;DHT22;66471;56.532;21.020;2022-12-29T15:55:40;5.50;99.90
73438;DHT22;66471;56.532;21.020;2022-12-29T15:58:26;5.90;99.90
73438;DHT22;66471;56.532;21.020;2022-12-29T16:00:57;5.90;99.90
73438;DHT22;66471;56.532;21.020;2022-12-29T16:03:27;5.60;99.90
73438;DHT22;66471;56.532;21.020;2022-12-29T16:06:30;5.70;99.90
73438;DHT22;66471;56.532;21.020;2022-12-29T16:11:49;5.90;99.90
73438;DHT22;66471;56.532;21.020;2022-12-29T16:14:20;5.80;99.90
73438;DHT22;66471;56.532;21.020;2022-12-29T16:16:49;5.80;99.90
73438;DHT22;66471;56.532;21.020;2022-12-29T16:19:27;6.00;99.90
73438;DHT22;66471;56.532;21.020;2022-12-29T16:21:58;5.80;99.90
73438;DHT22;66471;56.532;21.020;2022-12-29T16:24:28;5.80;99.90
73438;DHT22;66471;56.532;21.020;2022-12-29T16:27:21;5.90;99.90
73438;DHT22;66471;56.532;21.020;2022-12-29T16:29:53;5.70;99.90
73438;DHT22;66471;56.532;21.020;2022-12-29T16:32:31;5.90;99.90
73438;DHT22;66471;56.532;21.020;2022-12-29T16:35:18;6.10;99.90
73438;DHT22;66471;56.532;21.020;2022-12-29T16:37:46;5.90;99.90
73438;DHT22;66471;56.532;21.020;2022-12-29T16:40:29;5.80;99.90
73438;DHT22;66471;56.532;21.020;2022-12-29T16:43:01;5.90;99.90
73438;DHT22;66471;56.532;21.020;2022-12-29T16:48:21;6.00;99.90
73438;DHT22;66471;56.532;21.020;2022-12-29T16:50:50;5.80;99.90
73438;DHT22;66471;56.532;21.020;2022-12-29T16:53:26;6.00;99.90
73438;DHT22;66471;56.532;21.020;2022-12-29T16:55:55;5.90;99.90
73438;DHT22;66471;56.532;21.020;2022-12-29T16:58:27;5.90;99.90
73438;DHT22;66471;56.532;21.020;2022-12-29T17:00:55;6.00;99.90
73438;DHT22;66471;56.532;21.020;2022-12-29T17:03:33;6.00;99.90
73438;DHT22;66471;56.532;21.020;2022-12-29T17:06:02;6.00;99.90
73438;DHT22;66471;56.532;21.020;2022-12-29T17:08:39;6.00;99.90
73438;DHT22;66471;56.532;21.020;2022-12-29T17:11:21;5.80;99.90
73438;DHT22;66471;56.532;21.020;2022-12-29T17:19:44;5.90;99.90
73438;DHT22;66471;56.532;21.020;2022-12-29T17:22:22;6.10;99.90
73438;DHT22;66471;56.532;21.020;2022-12-29T17:24:58;6.20;99.90
73438;DHT22;66471;56.532;21.020;2022-12-29T17:27:32;6.00;99.90
73438;DHT22;66471;56.532;21.020;2022-12-29T17:30:12;6.20;99.90
73438;DHT22;66471;56.532;21.020;2022-12-29T17:32:50;6.10;99.90
73438;DHT22;66471;56.532;21.020;2022-12-29T17:35:20;6.20;99.90
73438;DHT22;66471;56.532;21.020;2022-12-29T17:37:48;6.20;99.90
73438;DHT22;66471;56.532;21.020;2022-12-29T17:40:18;6.20;99.90
73438;DHT22;66471;56.532;21.020;2022-12-29T17:42:47;6.30;99.90
73438;DHT22;66471;56.532;21.020;2022-12-29T17:45:15;6.20;99.90
73438;DHT22;66471;56.532;21.020;2022-12-29T17:47:43;6.10;99.90
73438;DHT22;66471;56.532;21.020;2022-12-29T17:50:16;6.30;99.90
73438;DHT22;66471;56.532;21.020;2022-12-29T17:52:50;6.10;99.90
73438;DHT22;66471;56.532;21.020;2022-12-29T17:55:20;6.10;99.90
73438;DHT22;66471;56.532;21.020;2022-12-29T17:57:48;6.40;99.90
73438;DHT22;66471;56.532;21.020;2022-12-29T18:00:29;6.20;99.90
73438;DHT22;66471;56.532;21.020;2022-12-29T18:02:57;6.10;99.90
73438;DHT22;66471;56.532;21.020;2022-12-29T18:05:27;6.30;99.90
73438;DHT22;66471;56.532;21.020;2022-12-29T18:07:56;6.30;99.90
73438;DHT22;66471;56.532;21.020;2022-12-29T18:10:26;6.30;99.90
73438;DHT22;66471;56.532;21.020;2022-12-29T18:12:55;6.30;99.90
73438;DHT22;66471;56.532;21.020;2022-12-29T18:15:29;6.40;99.90
73438;DHT22;66471;56.532;21.020;2022-12-29T18:18:13;6.30;99.90
73438;DHT22;66471;56.532;21.020;2022-12-29T18:20:42;6.40;99.90
73438;DHT22;66471;56.532;21.020;2022-12-29T18:23:38;6.40;99.90
73438;DHT22;66471;56.532;21.020;2022-12-29T18:26:16;6.40;99.90
73438;DHT22;66471;56.532;21.020;2022-12-29T18:28:52;6.50;99.90
73438;DHT22;66471;56.532;21.020;2022-12-29T18:31:22;6.30;99.90
73438;DHT22;66471;56.532;21.020;2022-12-29T18:33:51;6.40;99.90
73438;DHT22;66471;56.532;21.020;2022-12-29T18:36:19;6.50;99.90
73438;DHT22;66471;56.532;21.020;2022-12-29T18:38:47;6.40;99.90
73438;DHT22;66471;56.532;21.020;2022-12-29T18:41:22;6.50;99.90
73438;DHT22;66471;56.532;21.020;2022-12-29T18:43:49;6.50;99.90
73438;DHT22;66471;56.532;21.020;2022-12-29T18:46:18;6.40;99.90
73438;DHT22;66471;56.532;21.020;2022-12-29T18:48:58;6.60;99.90
73438;DHT22;66471;56.532;21.020;2022-12-29T18:51:25;6.30;99.90
73438;DHT22;66471;56.532;21.020;2022-12-29T18:53:52;6.50;99.90
73438;DHT22;66471;56.532;21.020;2022-12-29T18:56:21;6.50;99.90
73438;DHT22;66471;56.532;21.020;2022-12-29T18:58:49;6.50;99.90
73438;DHT22;66471;56.532;21.020;2022-12-29T19:01:20;6.40;99.90
73438;DHT22;66471;56.532;21.020;2022-12-29T19:03:55;6.30;99.90
73438;DHT22;66471;56.532;21.020;2022-12-29T19:06:26;6.40;99.90
73438;DHT22;66471;56.532;21.020;2022-12-29T19:08:54;6.40;99.90
73438;DHT22;66471;56.532;21.020;2022-12-29T19:11:25;6.50;99.90
73438;DHT22;66471;56.532;21.020;2022-12-29T19:13:52;6.20;99.90
73438;DHT22;66471;56.532;21.020;2022-12-29T19:16:20;6.30;99.90
73438;DHT22;66471;56.532;21.020;2022-12-29T19:18:48;6.30;99.90
73438;DHT22;66471;56.532;21.020;2022-12-29T19:21:34;6.40;99.90
73438;DHT22;66471;56.532;21.020;2022-12-29T19:24:03;6.30;99.90
73438;DHT22;66471;56.532;21.020;2022-12-29T19:26:40;6.40;99.90
73438;DHT22;66471;56.532;21.020;2022-12-29T19:29:13;6.40;99.90
73438;DHT22;66471;56.532;21.020;2022-12-29T19:35:27;6.30;99.90
73438;DHT22;66471;56.532;21.020;2022-12-29T19:37:58;6.20;99.90
73438;DHT22;66471;56.532;21.020;2022-12-29T19:40:27;6.30;99.90
73438;DHT22;66471;56.532;21.020;2022-12-29T19:42:55;6.40;99.90
73438;DHT22;66471;56.532;21.020;2022-12-29T19:45:22;6.30;99.90
73438;DHT22;66471;56.532;21.020;2022-12-29T19:47:49;6.50;99.90
73438;DHT22;66471;56.532;21.020;2022-12-29T19:50:18;6.40;99.90
73438;DHT22;66471;56.532;21.020;2022-12-29T19:52:45;6.60;99.90
73438;DHT22;66471;56.532;21.020;2022-12-29T19:55:16;6.40;99.90
73438;DHT22;66471;56.532;21.020;2022-12-29T19:57:44;6.30;99.90
73438;DHT22;66471;56.532;21.020;2022-12-29T20:00:12;6.50;99.90
73438;DHT22;66471;56.532;21.020;2022-12-29T20:02:40;6.40;99.90
73438;DHT22;66471;56.532;21.020;2022-12-29T20:05:08;6.50;99.90
73438;DHT22;66471;56.532;21.020;2022-12-29T20:07:36;6.40;99.90
73438;DHT22;66471;56.532;21.020;2022-12-29T20:10:06;6.40;99.90
73438;DHT22;66471;56.532;21.020;2022-12-29T20:12:34;6.40;99.90
73438;DHT22;66471;56.532;21.020;2022-12-29T20:15:08;6.40;99.90
73438;DHT22;66471;56.532;21.020;2022-12-29T20:17:36;6.40;99.90
73438;DHT22;66471;56.532;21.020;2022-12-29T20:20:24;6.30;99.90
73438;DHT22;66471;56.532;21.020;2022-12-29T20:22:51;6.30;99.90
73438;DHT22;66471;56.532;21.020;2022-12-29T20:25:19;6.20;99.90
73438;DHT22;66471;56.532;21.020;2022-12-29T20:28:06;6.30;99.90
73438;DHT22;66471;56.532;21.020;2022-12-29T20:30:35;6.40;99.90
73438;DHT22;66471;56.532;21.020;2022-12-29T20:33:02;6.40;99.90
73438;DHT22;66471;56.532;21.020;2022-12-29T20:35:35;6.40;99.90
73438;DHT22;66471;56.532;21.020;2022-12-29T20:38:02;6.40;99.90
73438;DHT22;66471;56.532;21.020;2022-12-29T20:40:30;6.30;99.90
73438;DHT22;66471;56.532;21.020;2022-12-29T20:42:57;6.40;99.90
73438;DHT22;66471;56.532;21.020;2022-12-29T20:45:24;6.50;99.90
73438;DHT22;66471;56.532;21.020;2022-12-29T20:47:51;6.40;99.90
73438;DHT22;66471;56.532;21.020;2022-12-29T20:50:18;6.50;99.90
73438;DHT22;66471;56.532;21.020;2022-12-29T20:52:46;6.50;99.90
73438;DHT22;66471;56.532;21.020;2022-12-29T20:55:13;6.50;99.90
73438;DHT22;66471;56.532;21.020;2022-12-29T20:57:40;6.30;99.90
73438;DHT22;66471;56.532;21.020;2022-12-29T21:00:28;6.40;99.90
73438;DHT22;66471;56.532;21.020;2022-12-29T21:02:58;6.50;99.90
73438;DHT22;66471;56.532;21.020;2022-12-29T21:05:27;6.50;99.90
73438;DHT22;66471;56.532;21.020;2022-12-29T21:07:55;6.40;99.90
